Latest Weather Observations for Hopetoun Airport

IDV60801

Issued at 10:35 pm EDT Tuesday 21 October 2014 (issued every 30 minutes, with the page automatically refreshed every 10 minutes)

About weather observations | Map of weather stations | Latest weather observations for VIC | Other Formats
Station Details ID: 077010 Name: HOPETOUN AIRPORT Lat: -35.72 Lon: 142.36 Height: 77.3 m
Data from the previous 72 hours. | See also: Recent months at Hopetoun Airport
Date/Time
EDT
Temp
°C
App
Temp
°C
Dew
Point
Rel
Hum
%
Delta-T
°C
Wind Press
QNH
hPa
Press
MSL
hPa
Rain
since 9 am
mm
Dir
 
Spd
km/h
Gust
km/h
Spd
kts
Gust
kts
21/10:30pm 24.7 20.4 6.9 32 9.3 E 19 26 10 14 1020.5 1020.4 0.0
21/10:00pm 24.7 20.1 6.4 31 9.5 E 20 26 11 14 1020.3 1020.2 0.0
21/09:30pm 25.1 20.5 5.8 29 9.9 E 19 22 10 12 1020.3 1020.2 0.0
21/09:00pm 25.6 21.3 5.2 27 10.4 E 17 20 9 11 1020.2 1020.1 0.0
21/08:30pm 26.5 22.5 4.9 25 11.0 E 15 19 8 10 1020.0 1019.9 0.0
21/08:00pm 27.8 23.7 4.2 22 12.0 E 15 20 8 11 1019.8 1019.7 0.0
21/07:30pm 29.8 25.8 2.9 18 13.5 E 13 15 7 8 1019.5 1019.4 0.0
21/07:00pm 32.1 27.8 3.1 16 14.8 E 15 19 8 10 1019.4 1019.3 0.0
21/06:30pm 33.1 29.5 3.0 15 15.5 E 11 20 6 11 1019.4 1019.3 0.0
21/06:00pm 33.3 29.7 3.2 15 15.5 E 11 15 6 8 1019.5 1019.4 0.0
21/05:30pm 33.4 31.0 2.3 14 15.8 ESE 4 7 2 4 1019.5 1019.4 0.0
21/05:00pm 33.0 30.3 2.9 15 15.4 SSE 6 9 3 5 1019.6 1019.5 0.0
21/04:30pm 32.8 29.9 2.8 15 15.3 NE 7 13 4 7 1019.9 1019.8 0.0
21/04:00pm 32.7 29.4 2.7 15 15.3 ESE 9 15 5 8 1020.3 1020.2 0.0
21/03:30pm 32.1 28.9 3.1 16 14.8 E 9 19 5 10 1020.7 1020.6 0.0
21/03:00pm 32.1 28.3 4.0 17 14.6 ENE 13 22 7 12 1021.2 1021.1 0.0
21/02:30pm 31.4 28.4 4.2 18 14.1 E 9 17 5 9 1021.6 1021.5 0.0
21/02:00pm 30.6 27.7 4.4 19 13.5 E 9 17 5 9 1022.2 1022.1 0.0
21/01:30pm 30.1 27.5 6.1 22 12.8 NE 9 19 5 10 1022.7 1022.6 0.0
21/01:00pm 28.6 25.7 6.7 25 11.6 E 11 17 6 9 1023.0 1022.9 0.0
21/12:30pm 27.3 24.6 7.2 28 10.7 ENE 11 20 6 11 1023.6 1023.5 0.0
21/12:00pm 25.9 23.1 7.0 30 9.9 NE 11 20 6 11 1023.9 1023.8 0.0
21/11:30am 24.7 21.4 6.4 31 9.5 ENE 13 19 7 10 1024.1 1024.0 0.0
21/11:00am 23.6 20.4 6.8 34 8.7 ENE 13 17 7 9 1024.3 1024.2 0.0
21/10:30am 21.6 18.7 6.7 38 7.6 ENE 11 17 6 9 1024.5 1024.4 0.0
21/10:00am 19.8 16.7 7.2 44 6.4 E 13 20 7 11 1024.6 1024.6 0.0
21/09:30am 18.0 14.8 6.8 48 5.6 E 13 17 7 9 1024.5 1024.4 0.0
21/09:00am 16.2 12.2 6.6 53 4.7 ENE 17 20 9 11 1024.7 1024.7 0.0
21/08:30am 13.8 9.6 5.7 58 3.8 ENE 17 20 9 11 1024.6 1024.6 0.0
21/08:00am 11.8 7.8 5.0 63 3.1 E 15 19 8 10 1024.3 1024.2 0.0
21/07:30am 9.7 6.4 4.3 69 2.4 E 11 15 6 8 1024.1 1024.0 0.0
21/07:00am 9.1 5.4 4.3 72 2.1 ESE 13 17 7 9 1023.9 1023.8 0.0
21/06:30am 9.2 5.5 4.6 73 2.0 ESE 13 17 7 9 1023.6 1023.5 0.0
21/06:00am 9.8 5.8 5.0 72 2.2 ESE 15 20 8 11 1023.4 1023.3 0.0
21/05:30am 9.6 5.6 4.8 72 2.2 ESE 15 19 8 10 1023.4 1023.3 0.0
21/05:00am 8.0 4.8 3.1 71 2.1 E 9 11 5 6 1024.0 1023.9 0.0
21/04:30am 10.5 7.6 4.9 68 2.5 ESE 9 13 5 7 1023.7 1023.6 0.0
21/04:00am 11.5 7.9 4.9 64 3.0 SE 13 20 7 11 1023.4 1023.3 0.0
21/03:30am 12.0 7.9 4.5 60 3.4 SE 15 20 8 11 1023.5 1023.4 0.0
21/03:00am 12.6 8.8 4.1 56 3.8 SE 13 19 7 10 1023.8 1023.7 0.0
21/02:30am 13.3 9.5 3.7 52 4.3 SE 13 17 7 9 1023.9 1023.8 0.0
21/02:00am 14.2 10.7 3.4 48 4.9 SE 11 17 6 9 1024.2 1024.1 0.0
21/01:30am 14.9 10.6 3.1 45 5.3 SE 15 20 8 11 1024.4 1024.3 0.0
21/01:00am 15.4 11.0 2.6 42 5.7 SE 15 20 8 11 1024.8 1024.8 0.0
21/12:30am 15.9 10.6 2.0 39 6.2 SE 19 22 10 12 1024.8 1024.8 0.0
21/12:00am 16.4 11.0 1.3 36 6.6 SE 19 26 10 14 1024.8 1024.8 0.0
 
Date/Time
EDT
Temp
°C
App
Temp
°C
Dew
Point
Rel
Hum
%
Delta-T
°C
Wind Press
QNH
hPa
Press
MSL
hPa
Rain
since 9 am
mm
Dir
 
Spd
km/h
Gust
km/h
Spd
kts
Gust
kts
20/11:30pm 17.3 11.7 0.9 33 7.2 SE 20 28 11 15 1025.0 1025.0 0.0
20/11:00pm 18.1 13.1 1.2 32 7.5 SE 17 24 9 13 1024.8 1024.8 0.0
20/10:30pm 18.7 13.7 1.2 31 7.9 SE 17 24 9 13 1024.7 1024.7 0.0
20/10:00pm 19.6 14.1 0.6 28 8.4 SSE 19 24 10 13 1024.7 1024.7 0.0
20/09:30pm 20.7 14.9 0.0 25 9.2 SSE 20 26 11 14 1024.5 1024.4 0.0
20/09:00pm 21.3 16.4 -0.6 23 9.7 SSE 15 19 8 10 1024.1 1024.0 0.0
20/08:30pm 22.3 17.3 -1.1 21 10.3 SSE 15 17 8 9 1023.7 1023.6 0.0
20/08:00pm 23.4 18.5 -0.8 20 10.8 SSE 15 20 8 11 1023.4 1023.3 0.0
20/07:30pm 24.8 19.5 -0.4 19 11.5 SSE 17 22 9 12 1023.1 1023.0 0.0
20/07:00pm 26.1 20.3 0.0 18 12.1 SSE 20 24 11 13 1022.8 1022.7 0.0
20/06:30pm 28.0 22.5 0.7 17 13.1 SSE 19 24 10 13 1022.8 1022.7 0.0
20/06:00pm 27.8 23.0 0.5 17 12.9 SSE 15 19 8 10 1022.8 1022.7 0.0
20/05:30pm 27.8 23.2 1.3 18 12.8 SSE 15 24 8 13 1023.0 1022.9 0.0
20/05:00pm 27.6 23.7 1.2 18 12.6 S 11 22 6 12 1023.0 1022.9 0.0
20/04:30pm 28.0 23.4 1.5 18 12.9 SSE 15 22 8 12 1023.2 1023.1 0.0
20/04:00pm 28.1 23.6 2.3 19 12.6 SE 15 22 8 12 1023.3 1023.2 0.0
20/03:30pm 26.9 23.2 2.1 20 12.1 S 11 19 6 10 1023.6 1023.5 0.0
20/03:00pm 26.9 23.3 2.7 21 11.8 SE 11 20 6 11 1024.1 1024.0 0.0
20/02:30pm 26.0 22.1 3.3 23 11.2 ESE 13 24 7 13 1024.6 1024.6 0.0
20/02:00pm 25.0 20.7 3.0 24 10.7 SSE 15 22 8 12 1025.0 1025.0 0.0
20/01:30pm 24.9 21.0 3.5 25 10.5 SE 13 20 7 11 1025.4 1025.4 0.0
20/01:00pm 23.4 19.6 3.9 28 9.5 SE 13 22 7 12 1025.7 1025.7 0.0
20/12:30pm 22.1 18.4 4.7 32 8.6 SE 13 24 7 13 1026.2 1026.2 0.0
20/12:00pm 21.1 17.1 5.1 35 7.9 SE 15 24 8 13 1026.7 1026.7 0.0
20/11:30am 19.6 15.3 5.3 39 7.0 SE 17 24 9 13 1027.2 1027.2 0.0
20/11:00am 17.9 13.7 5.8 45 5.9 SE 17 26 9 14 1027.6 1027.6 0.0
20/10:30am 17.1 12.3 5.7 47 5.5 ESE 20 30 11 16 1027.7 1027.7 0.0
20/10:00am 16.0 10.9 6.2 52 4.7 ESE 22 30 12 16 1027.5 1027.5 0.0
20/09:30am 14.8 9.8 6.4 57 4.1 ESE 22 32 12 17 1027.4 1027.4 0.0
20/09:00am 13.9 8.5 6.3 60 3.6 ESE 24 39 13 21 1027.4 1027.4 0.0
20/08:30am 12.9 7.5 6.5 65 3.1 SE 24 32 13 17 1027.4 1027.4 0.0
20/08:00am 11.7 7.2 6.8 72 2.3 SE 20 28 11 15 1027.1 1027.1 0.0
20/07:30am 10.8 6.8 6.7 76 1.9 SE 17 22 9 12 1026.6 1026.6 0.0
20/07:00am 10.2 6.6 6.9 80 1.6 SE 15 20 8 11 1026.2 1026.2 0.0
20/06:30am 10.4 6.9 7.3 81 1.5 SE 15 19 8 10 1026.0 1026.0 0.0
20/06:00am 11.0 6.6 7.5 79 1.7 SE 20 28 11 15 1025.5 1025.5 0.0
20/05:30am 11.1 7.0 8.0 81 1.5 SSE 19 26 10 14 1025.0 1025.0 0.0
20/05:00am 11.2 7.5 8.1 81 1.5 SSE 17 22 9 12 1024.7 1024.7 0.0
20/04:30am 11.3 7.7 8.2 81 1.5 SSE 17 22 9 12 1024.7 1024.7 0.0
20/04:00am 11.7 7.7 8.2 79 1.7 SSE 19 24 10 13 1024.7 1024.7 0.0
20/03:30am 12.0 8.0 8.1 77 1.9 SSE 19 22 10 12 1024.6 1024.6 0.0
20/03:00am 12.4 9.1 7.9 74 2.2 SSE 15 20 8 11 1024.7 1024.7 0.0
20/02:30am 12.8 9.5 8.1 73 2.3 SSE 15 22 8 12 1024.6 1024.6 0.0
20/02:00am 13.1 8.8 8.0 71 2.5 SE 20 28 11 15 1024.8 1024.8 0.0
20/01:30am 13.5 8.9 8.1 70 2.7 SE 22 32 12 17 1024.6 1024.6 0.0
20/01:00am 13.8 8.9 8.4 70 2.7 SSE 24 35 13 19 1024.7 1024.7 0.0
20/12:30am 14.4 9.2 9.0 70 2.8 SSE 26 35 14 19 1024.4 1024.3 0.0
20/12:00am 14.8 10.5 9.2 69 2.9 SSE 22 37 12 20 1024.2 1024.1 0.0
 
Date/Time
EDT
Temp
°C
App
Temp
°C
Dew
Point
Rel
Hum
%
Delta-T
°C
Wind Press
QNH
hPa
Press
MSL
hPa
Rain
since 9 am
mm
Dir
 
Spd
km/h
Gust
km/h
Spd
kts
Gust
kts
19/11:30pm 15.4 11.1 9.3 67 3.2 SSE 22 30 12 16 1024.2 1024.1 0.0
19/11:00pm 16.4 12.6 9.8 65 3.4 SSE 20 30 11 16 1023.9 1023.8 0.0
19/10:30pm 17.4 13.9 10.3 63 3.8 SSE 19 24 10 13 1023.8 1023.7 0.0
19/10:00pm 19.1 14.5 11.2 60 4.3 SSE 26 32 14 17 1023.5 1023.4 0.0
19/09:30pm 20.3 16.2 11.5 57 4.9 S 24 37 13 20 1023.2 1023.1 0.0
19/09:00pm 22.0 16.5 12.0 53 5.6 S 32 43 17 23 1022.7 1022.6 0.0
19/08:30pm 26.0 21.6 8.9 34 9.3 S 22 33 12 18 1021.7 1021.6 0.0
19/08:00pm 27.7 22.2 0.5 17 12.9 SSW 19 32 10 17 1020.7 1020.6 0.0
19/07:30pm 29.1 22.8 -1.1 14 14.1 SW 22 30 12 16 1019.9 1019.8 0.0
19/07:00pm 30.4 22.6 -1.1 13 14.8 SW 30 39 16 21 1019.5 1019.4 0.0
19/06:30pm 31.3 22.1 -1.5 12 15.5 SSW 37 46 20 25 1018.9 1018.8 0.0
19/06:00pm 33.0 26.9 -4.0 9 16.9 W 19 28 10 15 1018.4 1018.3 0.0
19/05:30pm 33.8 27.2 -3.5 9 17.3 W 22 32 12 17 1018.4 1018.3 0.0
19/05:00pm 34.9 28.2 -4.2 8 18.0 W 22 30 12 16 1018.4 1018.3 0.0
19/04:30pm 34.4 28.6 -4.6 8 17.8 W 17 33 9 18 1018.5 1018.4 0.0
19/04:00pm 33.5 26.5 -3.7 9 17.1 NW 24 33 13 18 1018.7 1018.6 0.0
19/03:30pm 34.0 27.0 -3.3 9 17.4 NW 24 35 13 19 1019.0 1018.9 0.0
19/03:02pm 34.0 26.3 -3.3 9 17.4 NW 28 46 15 25 1019.3 1019.2 0.0
19/03:00pm 33.9 26.5 -3.4 9 17.3 NW 26 46 14 25 1019.4 1019.3 0.0
19/02:30pm 33.9 25.8 -3.4 9 17.3 NW 30 43 16 23 1019.7 1019.6 0.0
19/02:00pm 33.7 26.3 -3.5 9 17.2 NW 26 41 14 22 1020.0 1019.9 0.0
19/01:30pm 32.8 25.3 -4.2 9 16.8 NW 26 35 14 19 1020.4 1020.3 0.0
19/01:00pm 32.2 24.3 -4.6 9 16.5 NW 28 39 15 21 1020.5 1020.4 0.0
19/12:50pm 32.4 24.5 -4.5 9 16.7 NW 28 48 15 26 1020.6 1020.5 0.0
19/12:30pm 31.7 23.4 -5.0 9 16.3 NW 30 43 16 23 1020.8 1020.7 0.0
19/12:17pm 32.8 25.0 -4.2 9 16.8 NW 28 52 15 28 1020.8 1020.7 0.0
19/12:00pm 32.9 24.9 -2.7 10 16.6 WNW 30 43 16 23 1021.1 1021.0 0.0
19/11:30am 31.8 23.7 -3.5 10 16.1 NW 30 39 16 21 1021.5 1021.4 0.0
19/11:00am 30.7 23.0 -3.1 11 15.4 NW 28 39 15 21 1021.7 1021.6 0.0
19/10:30am 28.2 20.5 -2.8 13 13.9 NNW 28 37 15 20 1022.0 1021.9 0.0
19/10:00am 27.6 20.0 -2.3 14 13.5 NNW 28 43 15 23 1021.9 1021.8 0.0
19/09:30am 24.4 18.0 -1.4 18 11.5 NNW 22 28 12 15 1021.9 1021.8 0.0
19/09:00am 24.0 17.2 -1.8 18 11.4 N 24 32 13 17 1021.7 1021.6 0.0
19/08:30am 21.5 15.7 -1.7 21 10.1 N 19 24 10 13 1021.5 1021.4 0.0
19/08:00am 18.8 13.7 -2.2 24 8.8 N 15 20 8 11 1021.1 1021.0 0.0
19/07:30am 15.9 11.4 -3.0 27 7.6 NNE 11 13 6 7 1021.2 1021.1 0.0
19/07:00am 13.4 8.9 -3.4 31 6.5 NNE 11 13 6 7 1021.0 1020.9 0.0
19/06:30am 14.3 9.3 -3.9 28 7.0 NNE 13 17 7 9 1020.8 1020.7 0.0
19/06:00am 13.7 9.5 -3.5 30 6.6 NNE 9 11 5 6 1020.6 1020.5 0.0
19/05:30am 13.4 9.6 -3.8 30 6.6 NNE 7 9 4 5 1020.7 1020.6 0.0
19/05:00am 13.1 8.9 -4.1 30 6.5 NNE 9 11 5 6 1020.4 1020.3 0.0
19/04:30am 13.7 9.5 -4.0 29 6.8 NNE 9 13 5 7 1020.4 1020.3 0.0
19/04:00am 13.4 8.8 -3.8 30 6.6 NNE 11 13 6 7 1020.5 1020.4 0.0
19/03:30am 14.5 10.3 -3.8 28 7.1 NNE 9 11 5 6 1020.8 1020.7 0.0
19/03:00am 14.9 10.3 -3.9 27 7.3 NNE 11 13 6 7 1020.9 1020.8 0.0
19/02:30am 16.0 11.0 -4.0 25 7.9 NNE 13 15 7 8 1020.9 1020.8 0.0
19/02:00am 17.1 12.1 -4.2 23 8.4 NNE 13 15 7 8 1021.1 1021.0 0.0
19/01:30am 17.5 12.6 -3.8 23 8.5 NNE 13 17 7 9 1021.4 1021.3 0.0
19/01:00am 17.9 13.0 -3.5 23 8.6 NNE 13 17 7 9 1021.4 1021.3 0.0
19/12:30am 18.6 14.1 -3.5 22 9.0 NNE 11 15 6 8 1021.4 1021.3 0.0
19/12:00am 18.8 13.5 -3.3 22 9.0 NE 15 17 8 9 1021.5 1021.4 0.0
 
Date/Time
EDT
Temp
°C
App
Temp
°C
Dew
Point
Rel
Hum
%
Delta-T
°C
Wind Press
QNH
hPa
Press
MSL
hPa
Rain
since 9 am
mm
Dir
 
Spd
km/h
Gust
km/h
Spd
kts
Gust
kts
18/11:30pm 18.7 13.5 -2.8 23 8.9 NE 15 17 8 9 1021.6 1021.5 0.0
18/11:00pm 20.0 14.9 -2.3 22 9.4 NNE 15 20 8 11 1021.7 1021.6 0.0

Other Formats:

Comma delimited format used in spreadsheet applications
http://www.bom.gov.au/fwo/IDV60801/IDV60801.94838.axf

JavaScript Object Notation format (JSON) in row-major order
http://www.bom.gov.au/fwo/IDV60801/IDV60801.94838.json